Details for AirAsia at WBGG




Go Back


Latest METAR
Local Time

WBGG 180400Z 34004KT 260V040 9999 BKN018 BKN300 31/24 Q1010 NOSIG

18/02/2018, 12:35:47

Description
Results
AirAsia Logo
Number of Pilots based at WBGG
0 Pilots Based here
Number of AirAsia Flights Departed from WBGG
0 Flights Departed
Number of AirAsia Flights Arrived at WBGG
0 Flights Arrived
Number of AirAsia Schedules Departing from WBGG
36 Schedules
Number of AirAsia Schedules Arriving at WBGG
35 Schedules
Number of AirAsia Schedules Departing from WBGG availible today
30 Schedules Today
Number of AirAsia Schedules Arriving at WBGG availible today
29 Schedules Today
Average Landing Rate at WBGG
0 fpm
AirAsia Average Landing Rate at WBGG
0 fpm
Total Fuel Purchased at WBGG by AirAsia
0.00 kgs / 0.00 lbs

Pilots Based at WBGG


Pilot ID
Pilot Name
Pilot Rank
No. of Flights
No. of Flying Hours
There are no pilots assigned to this hub!   Will you be the first?
Content